Time;durP1;ratioP1;P1;durP2;ratioP2;P2;SDS_P1;SDS_P2;PMS_P1;PMS_P2;Temp;Humidity;BMP_temperature;BMP_pressure;BME280_temperature;BME280_humidity;BME280_pressure;Samples;Min_cycle;Max_cycle;Signal;HPM_P1;HPM_P2
2022/05/04 00:01:40;;;;;;;3.28;1.40;;;17.50;82.60;;;;;;6279624;22;20014;-64
2022/05/04 00:04:07;;;;;;;4.47;1.40;;;17.50;82.40;;;;;;6305224;22;20018;-64
2022/05/04 00:06:34;;;;;;;2.20;1.33;;;17.50;82.60;;;;;;6305486;22;20003;-63
2022/05/04 00:09:02;;;;;;;2.53;1.20;;;17.60;82.60;;;;;;6305157;22;20095;-64
2022/05/04 00:11:29;;;;;;;4.43;1.38;;;17.60;82.20;;;;;;6305461;22;20017;-64
2022/05/04 00:13:56;;;;;;;2.33;1.40;;;17.70;82.40;;;;;;6305372;22;20188;-64
2022/05/04 00:16:23;;;;;;;2.60;1.60;;;17.70;82.00;;;;;;6332298;22;20011;-64
2022/05/04 00:18:50;;;;;;;3.40;1.27;;;17.80;82.30;;;;;;6305110;22;20003;-64
2022/05/04 00:21:18;;;;;;;5.07;1.60;;;17.80;81.80;;;;;;6332576;22;20012;-64
2022/05/04 00:23:45;;;;;;;6.55;1.58;;;17.90;82.20;;;;;;6332709;22;20470;-64
2022/05/04 00:26:12;;;;;;;3.65;1.20;;;18.00;82.40;;;;;;6333239;22;20007;-63
2022/05/04 00:28:39;;;;;;;4.57;1.38;;;18.00;81.70;;;;;;6305970;22;19994;-64
2022/05/04 00:31:06;;;;;;;2.90;1.23;;;18.10;81.40;;;;;;6306059;22;20014;-64
2022/05/04 00:33:34;;;;;;;3.28;1.58;;;18.10;81.40;;;;;;6333228;22;20005;-64
2022/05/04 00:36:01;;;;;;;5.85;1.40;;;18.20;82.30;;;;;;6333189;22;20313;-63
2022/05/04 00:38:28;;;;;;;4.60;1.40;;;18.20;82.10;;;;;;6332898;22;20329;-63
2022/05/04 00:40:55;;;;;;;4.85;1.70;;;18.30;81.60;;;;;;6333620;22;20019;-64
2022/05/04 00:43:26;;;;;;;5.85;1.85;;;18.30;81.60;;;;;;6305461;22;20064;-64
2022/05/04 00:45:53;;;;;;;5.72;1.60;;;18.30;81.60;;;;;;6330682;22;20460;-64
2022/05/04 00:48:20;;;;;;;3.20;2.10;;;18.30;82.10;;;;;;6333184;22;20325;-64
2022/05/04 00:50:49;;;;;;;5.18;1.77;;;18.40;81.70;;;;;;6333037;22;20013;-64
2022/05/04 00:53:17;;;;;;;3.55;1.65;;;18.40;82.00;;;;;;6305130;22;20007;-63
2022/05/04 00:55:45;;;;;;;4.40;1.92;;;18.40;81.60;;;;;;6305524;22;20421;-64
2022/05/04 01:00:59;;;;;;;5.15;1.30;;;18.50;81.80;;;;;;6288069;22;20053;-64
2022/05/04 01:03:27;;;;;;;2.70;1.25;;;18.70;81.40;;;;;;6280618;22;20023;-64
2022/05/04 01:05:54;;;;;;;2.30;1.35;;;18.70;80.50;;;;;;6332586;22;20053;-64
2022/05/04 01:08:21;;;;;;;3.30;1.50;;;18.80;80.20;;;;;;6332427;22;20075;-64
2022/05/04 01:10:48;;;;;;;2.47;1.30;;;18.80;80.80;;;;;;6304953;22;20007;-64
2022/05/04 01:13:20;;;;;;;4.93;1.50;;;18.80;79.80;;;;;;6305527;22;20063;-64
2022/05/04 01:15:48;;;;;;;6.18;1.30;;;19.00;79.00;;;;;;6333048;22;20043;-64
2022/05/04 01:18:15;;;;;;;2.58;1.40;;;19.00;78.70;;;;;;6332928;22;20003;-64
2022/05/04 01:20:42;;;;;;;4.20;1.40;;;19.10;78.30;;;;;;6279780;22;20015;-63
2022/05/04 01:23:10;;;;;;;5.60;1.67;;;19.20;78.70;;;;;;6304929;22;20467;-64
2022/05/04 01:25:37;;;;;;;6.47;1.63;;;19.20;77.00;;;;;;6305142;22;20090;-64
2022/05/04 01:28:05;;;;;;;3.22;1.42;;;19.30;76.70;;;;;;6334227;22;20070;-64
2022/05/04 01:30:32;;;;;;;2.13;1.20;;;19.30;76.50;;;;;;6335014;22;20018;-64
2022/05/04 01:33:00;;;;;;;4.15;2.00;;;19.30;76.10;;;;;;6334578;22;20368;-63
2022/05/04 01:35:27;;;;;;;1.30;1.20;;;19.30;74.90;;;;;;6333275;22;20531;-63
2022/05/04 01:37:54;;;;;;;3.83;1.45;;;19.40;75.10;;;;;;6279528;22;20014;-63
2022/05/04 01:40:22;;;;;;;2.78;1.45;;;19.50;73.80;;;;;;6334327;22;20017;-64
2022/05/04 01:42:49;;;;;;;4.75;1.40;;;19.50;73.20;;;;;;6306859;22;20010;-64
2022/05/04 01:45:16;;;;;;;3.03;1.50;;;19.60;73.10;;;;;;6304152;22;20034;-64
2022/05/04 01:47:48;;;;;;;1.85;1.17;;;19.60;73.20;;;;;;6334289;22;19998;-64
2022/05/04 01:50:15;;;;;;;2.83;1.20;;;19.70;72.90;;;;;;6333760;22;20338;-64
2022/05/04 01:52:43;;;;;;;2.30;1.30;;;19.70;73.20;;;;;;6333335;22;20009;-64
2022/05/04 01:55:10;;;;;;;2.83;1.42;;;19.80;72.80;;;;;;6306903;22;20390;-64
2022/05/04 01:57:37;;;;;;;5.10;1.50;;;19.80;71.70;;;;;;6281672;22;20006;-64
2022/05/04 02:00:06;;;;;;;3.97;1.30;;;19.80;71.00;;;;;;6334399;22;20057;-64
2022/05/04 02:02:34;;;;;;;2.42;1.23;;;19.80;70.90;;;;;;6307323;22;20007;-64
2022/05/04 02:05:01;;;;;;;1.73;1.10;;;19.90;70.80;;;;;;6306459;22;20019;-64
2022/05/04 02:07:28;;;;;;;3.00;1.27;;;19.90;70.30;;;;;;6306364;22;20005;-64
2022/05/04 02:09:56;;;;;;;4.22;1.25;;;20.00;69.70;;;;;;6281084;22;20084;-64
2022/05/04 02:12:23;;;;;;;3.63;1.40;;;20.10;70.00;;;;;;6306576;22;20037;-64
2022/05/04 02:14:51;;;;;;;2.45;1.00;;;20.10;69.30;;;;;;6331444;22;20324;-63
2022/05/04 02:17:18;;;;;;;5.78;1.25;;;20.20;68.10;;;;;;6334184;22;20003;-64
2022/05/04 02:19:45;;;;;;;4.15;1.20;;;20.10;68.90;;;;;;6306632;22;20007;-64
2022/05/04 02:22:12;;;;;;;5.88;1.30;;;20.10;69.20;;;;;;6333256;22;20089;-63
2022/05/04 02:24:39;;;;;;;1.20;1.00;;;20.10;70.30;;;;;;6333822;22;20009;-64
2022/05/04 02:27:07;;;;;;;1.95;1.13;;;20.20;69.00;;;;;;6306929;22;20329;-64
2022/05/04 02:29:34;;;;;;;1.50;1.13;;;20.20;69.60;;;;;;6334268;22;20006;-64
2022/05/04 02:32:01;;;;;;;3.03;1.20;;;20.20;68.80;;;;;;6306911;22;20010;-64
2022/05/04 02:34:28;;;;;;;3.17;1.30;;;20.20;69.10;;;;;;6306674;22;20003;-64
2022/05/04 02:39:40;;;;;;;2.95;1.25;;;20.30;68.40;;;;;;6333671;22;20064;-64
2022/05/04 02:42:08;;;;;;;2.10;1.10;;;20.30;69.00;;;;;;6306239;22;20030;-64
2022/05/04 02:44:35;;;;;;;1.65;1.10;;;20.30;68.70;;;;;;6303551;22;20101;-64
2022/05/04 02:47:02;;;;;;;2.13;1.20;;;20.40;66.90;;;;;;6306256;22;20007;-64
2022/05/04 02:49:29;;;;;;;1.98;1.20;;;20.50;67.20;;;;;;6333886;22;20002;-64
2022/05/04 02:51:56;;;;;;;2.28;1.17;;;20.50;68.50;;;;;;6306073;22;19999;-64
2022/05/04 02:54:23;;;;;;;2.30;1.20;;;20.40;68.20;;;;;;6333935;22;20003;-64
2022/05/04 02:56:51;;;;;;;2.58;1.42;;;20.50;67.70;;;;;;6333934;22;20003;-64
2022/05/04 02:59:18;;;;;;;3.28;1.20;;;20.50;68.30;;;;;;6333533;22;20006;-64
2022/05/04 03:04:33;;;;;;;7.47;1.88;;;20.50;66.80;;;;;;6333743;22;20352;-64
2022/05/04 03:07:01;;;;;;;3.08;1.30;;;20.60;66.50;;;;;;6332780;22;20002;-64
2022/05/04 03:09:28;;;;;;;3.42;1.27;;;20.60;65.90;;;;;;6333089;22;20010;-64
2022/05/04 03:11:55;;;;;;;2.50;1.10;;;20.50;66.40;;;;;;6333035;22;20013;-64
2022/05/04 03:14:23;;;;;;;3.90;1.20;;;20.50;65.80;;;;;;6333711;22;20397;-64
2022/05/04 03:16:52;;;;;;;1.85;1.30;;;20.60;65.40;;;;;;6306269;22;20045;-64
2022/05/04 03:19:20;;;;;;;5.38;1.33;;;20.60;64.70;;;;;;6280299;22;20341;-64
2022/05/04 03:21:48;;;;;;;12.18;2.42;;;20.60;64.60;;;;;;6333297;22;20014;-64
2022/05/04 03:24:15;;;;;;;18.92;2.05;;;20.70;64.90;;;;;;6279977;22;20010;-64
2022/05/04 03:26:43;;;;;;;5.82;1.45;;;20.70;65.30;;;;;;6330910;22;20009;-64
2022/05/04 03:29:10;;;;;;;3.63;1.25;;;20.70;64.10;;;;;;6306103;22;20003;-64
2022/05/04 03:31:37;;;;;;;2.95;1.30;;;20.70;62.90;;;;;;6280606;22;20003;-64
2022/05/04 03:34:04;;;;;;;2.65;1.25;;;20.80;63.30;;;;;;6333078;22;20030;-64
2022/05/04 03:36:31;;;;;;;2.95;1.33;;;20.80;62.70;;;;;;6332998;22;20014;-64
2022/05/04 03:39:00;;;;;;;4.68;1.42;;;20.80;63.70;;;;;;6333467;22;19999;-64
2022/05/04 03:41:27;;;;;;;2.72;1.42;;;20.80;63.70;;;;;;6333771;22;20313;-64
2022/05/04 03:43:54;;;;;;;4.82;1.52;;;20.80;62.90;;;;;;6332368;22;20035;-64
2022/05/04 03:46:23;;;;;;;2.90;1.20;;;20.80;63.30;;;;;;6332615;22;20086;-64
2022/05/04 03:48:52;;;;;;;2.10;1.20;;;20.90;63.30;;;;;;6333315;22;20024;-64
2022/05/04 03:51:20;;;;;;;2.78;1.38;;;20.80;63.80;;;;;;6305030;22;20013;-64
2022/05/04 03:53:48;;;;;;;1.98;1.13;;;20.90;62.60;;;;;;6305357;22;20014;-64
2022/05/04 03:56:15;;;;;;;12.05;1.23;;;20.90;62.50;;;;;;6332913;22;20018;-64
2022/05/04 03:58:43;;;;;;;6.63;1.45;;;20.80;63.30;;;;;;6306251;22;20425;-64
2022/05/04 04:01:11;;;;;;;4.15;1.23;;;20.90;62.50;;;;;;6333346;22;20038;-64
2022/05/04 04:03:38;;;;;;;2.28;1.30;;;20.90;62.30;;;;;;6305946;22;20007;-64
2022/05/04 04:06:06;;;;;;;3.75;1.10;;;20.90;62.40;;;;;;6332938;22;20046;-64
2022/05/04 04:08:33;;;;;;;7.05;2.13;;;21.00;63.00;;;;;;6333136;22;20005;-64
2022/05/04 04:11:00;;;;;;;13.32;2.47;;;21.10;69.00;;;;;;6332886;22;20037;-64
2022/05/04 04:13:27;;;;;;;3.75;1.80;;;21.20;71.80;;;;;;6333170;22;19999;-64
2022/05/04 04:15:55;;;;;;;3.30;1.45;;;21.10;71.80;;;;;;6305943;22;20007;-64
2022/05/04 04:18:22;;;;;;;10.30;2.20;;;21.10;72.00;;;;;;6280160;22;20015;-64
2022/05/04 04:23:35;;;;;;;6.20;1.77;;;21.00;74.50;;;;;;6332828;22;20068;-64
2022/05/04 04:26:03;;;;;;;11.00;2.40;;;21.00;75.00;;;;;;6333522;22;20026;-63
2022/05/04 04:28:31;;;;;;;6.90;1.98;;;21.00;75.50;;;;;;6305829;22;20030;-64
2022/05/04 04:30:58;;;;;;;10.77;1.90;;;20.90;75.40;;;;;;6305164;22;20440;-63
2022/05/04 04:33:29;;;;;;;10.82;2.47;;;21.00;74.90;;;;;;6305288;22;20052;-64
2022/05/04 04:35:57;;;;;;;9.18;2.22;;;20.90;74.50;;;;;;6333080;22;20424;-63
2022/05/04 04:38:24;;;;;;;7.05;2.90;;;20.90;74.80;;;;;;6333227;22;20024;-63
2022/05/04 04:40:51;;;;;;;7.38;2.28;;;20.90;75.10;;;;;;6333046;22;20340;-63
2022/05/04 04:43:19;;;;;;;10.95;2.38;;;20.90;75.50;;;;;;6305609;22;20379;-63
2022/05/04 04:45:47;;;;;;;5.15;1.98;;;20.90;75.90;;;;;;6330821;22;20433;-63
2022/05/04 04:48:16;;;;;;;6.63;2.08;;;20.90;75.90;;;;;;6305371;22;20011;-63
2022/05/04 04:50:44;;;;;;;8.88;2.30;;;21.00;75.50;;;;;;6333196;22;20003;-63
2022/05/04 04:53:11;;;;;;;15.98;2.30;;;21.00;75.80;;;;;;6305118;22;20061;-63
2022/05/04 04:55:40;;;;;;;4.10;1.80;;;21.00;76.10;;;;;;6332863;22;20421;-63
2022/05/04 04:58:07;;;;;;;6.57;2.00;;;20.90;76.10;;;;;;6306095;22;19999;-64
2022/05/04 05:00:34;;;;;;;12.02;2.00;;;20.90;76.10;;;;;;6304923;22;20019;-63
2022/05/04 05:03:02;;;;;;;5.35;1.77;;;20.90;76.60;;;;;;6306398;22;20006;-64
2022/05/04 05:05:29;;;;;;;6.43;2.50;;;20.90;76.80;;;;;;6334696;22;20019;-63
2022/05/04 05:07:56;;;;;;;11.07;2.55;;;20.90;77.00;;;;;;6334886;22;20030;-63
2022/05/04 05:10:24;;;;;;;6.05;2.30;;;20.90;76.90;;;;;;6334294;22;20063;-63
2022/05/04 05:12:51;;;;;;;6.15;1.70;;;20.90;77.20;;;;;;6334541;22;20009;-63
2022/05/04 05:18:04;;;;;;;4.60;1.92;;;20.90;77.60;;;;;;6334502;22;20009;-64
2022/05/04 05:20:32;;;;;;;2.78;1.75;;;20.90;77.90;;;;;;6334266;22;20022;-64
2022/05/04 05:23:00;;;;;;;7.40;2.50;;;20.90;77.70;;;;;;6281134;22;20010;-64
2022/05/04 05:25:28;;;;;;;5.38;2.05;;;20.90;77.80;;;;;;6332872;22;20348;-64
2022/05/04 05:27:56;;;;;;;9.90;2.65;;;21.00;77.70;;;;;;6307064;22;20034;-64
2022/05/04 05:30:23;;;;;;;5.15;1.83;;;20.90;78.00;;;;;;6306813;22;20368;-64
2022/05/04 05:32:51;;;;;;;5.20;1.70;;;20.90;78.10;;;;;;6333783;22;20030;-64
2022/05/04 05:35:18;;;;;;;9.10;2.50;;;20.90;78.00;;;;;;6333941;22;20028;-64
2022/05/04 05:37:45;;;;;;;4.45;2.20;;;20.90;78.20;;;;;;6281443;22;20011;-64
2022/05/04 05:40:13;;;;;;;7.65;2.22;;;20.90;77.90;;;;;;6334562;22;20042;-64
2022/05/04 05:42:40;;;;;;;11.40;2.33;;;20.90;78.30;;;;;;6333620;22;19999;-64
2022/05/04 05:45:08;;;;;;;4.72;1.92;;;20.90;78.30;;;;;;6330610;22;20023;-64
2022/05/04 05:47:35;;;;;;;8.88;2.13;;;21.00;78.30;;;;;;6332360;22;20003;-65
2022/05/04 05:50:03;;;;;;;8.18;2.50;;;20.90;77.70;;;;;;6333649;22;20021;-65
2022/05/04 05:52:30;;;;;;;6.55;2.20;;;21.00;78.00;;;;;;6306417;22;20006;-65
2022/05/04 05:54:58;;;;;;;9.40;2.17;;;21.00;78.00;;;;;;6334043;22;20003;-66
2022/05/04 05:57:25;;;;;;;7.22;2.20;;;21.00;78.10;;;;;;6334081;22;20425;-64
2022/05/04 05:59:53;;;;;;;6.93;2.42;;;21.00;77.90;;;;;;6333861;22;20018;-65
2022/05/04 06:02:21;;;;;;;3.53;1.92;;;20.90;78.20;;;;;;6306183;22;20011;-66
2022/05/04 06:04:48;;;;;;;9.63;2.20;;;20.90;78.30;;;;;;6333715;22;20084;-64
2022/05/04 06:07:15;;;;;;;8.32;1.90;;;20.80;77.90;;;;;;6333068;22;20013;-65
2022/05/04 06:09:42;;;;;;;6.93;1.98;;;20.80;77.80;;;;;;6333651;22;20007;-66
2022/05/04 06:12:10;;;;;;;4.00;1.65;;;20.90;76.90;;;;;;6333985;22;19998;-65
2022/05/04 06:14:37;;;;;;;11.40;2.72;;;20.90;76.50;;;;;;6333231;22;20081;-65
2022/05/04 06:17:04;;;;;;;5.95;1.80;;;20.90;76.40;;;;;;6333422;22;20011;-65
2022/05/04 06:19:32;;;;;;;5.95;2.10;;;20.90;76.80;;;;;;6333824;22;20003;-66
2022/05/04 06:21:59;;;;;;;6.45;2.08;;;20.80;76.60;;;;;;6333805;22;20081;-66
2022/05/04 06:24:29;;;;;;;10.55;2.83;;;20.90;76.20;;;;;;6333535;22;20010;-66
2022/05/04 06:26:56;;;;;;;12.38;2.53;;;20.90;75.90;;;;;;6305695;22;20101;-66
2022/05/04 06:34:06;;;;;;;9.23;2.42;;;20.90;76.20;;;;;;6333572;22;19998;-66
2022/05/04 06:34:55;;;;;;;14.20;2.60;;;20.80;76.10;;;;;;6333953;22;20026;-66
2022/05/04 06:37:23;;;;;;;6.32;1.95;;;20.90;76.10;;;;;;6333564;22;20034;-66
2022/05/04 06:39:50;;;;;;;7.80;2.30;;;20.80;76.10;;;;;;6333638;22;20006;-66
2022/05/04 06:42:18;;;;;;;7.60;2.20;;;20.90;75.80;;;;;;6333542;22;20010;-66
2022/05/04 06:44:45;;;;;;;5.93;2.03;;;20.80;75.90;;;;;;6331119;22;20372;-66
2022/05/04 06:47:12;;;;;;;6.93;2.45;;;20.80;76.00;;;;;;6333593;22;20003;-66
2022/05/04 06:49:41;;;;;;;7.82;1.67;;;20.80;75.80;;;;;;6334075;22;20144;-69
2022/05/04 06:52:09;;;;;;;8.82;2.50;;;20.80;75.80;;;;;;6307027;22;20429;-66
2022/05/04 06:54:37;;;;;;;6.40;1.88;;;20.80;75.30;;;;;;6306483;22;20124;-65
2022/05/04 06:57:04;;;;;;;4.40;1.77;;;20.80;75.50;;;;;;6306760;22;19994;-66
2022/05/04 06:59:31;;;;;;;7.22;1.98;;;20.70;75.40;;;;;;6305721;22;20038;-65
2022/05/04 07:01:58;;;;;;;6.32;1.67;;;20.70;75.50;;;;;;6332546;22;20034;-65
2022/05/04 07:04:26;;;;;;;4.13;1.88;;;20.70;75.30;;;;;;6306193;22;20011;-66
2022/05/04 07:06:53;;;;;;;6.63;1.77;;;20.60;75.20;;;;;;6333114;22;20016;-65
2022/05/04 07:09:20;;;;;;;8.75;1.90;;;20.60;75.20;;;;;;6333704;22;19998;-65
2022/05/04 07:11:47;;;;;;;7.55;1.92;;;20.60;75.50;;;;;;6333821;22;20075;-66
2022/05/04 07:14:14;;;;;;;7.35;2.00;;;20.60;75.60;;;;;;6333654;22;20017;-67
2022/05/04 07:16:42;;;;;;;5.20;1.90;;;20.60;75.90;;;;;;6333206;22;20003;-67
2022/05/04 07:19:09;;;;;;;7.22;2.20;;;20.60;75.90;;;;;;6303595;22;20026;-67
2022/05/04 07:21:36;;;;;;;4.82;1.60;;;20.50;76.00;;;;;;6304826;22;20022;-67
2022/05/04 07:24:03;;;;;;;4.22;1.80;;;20.50;75.90;;;;;;6332568;22;19998;-67
2022/05/04 07:26:30;;;;;;;5.47;1.50;;;20.50;75.80;;;;;;6279768;22;20014;-68
2022/05/04 07:28:58;;;;;;;6.65;1.63;;;20.50;75.80;;;;;;6332667;22;20003;-68
2022/05/04 07:31:25;;;;;;;6.15;1.80;;;20.50;75.90;;;;;;6333050;22;20056;-68
2022/05/04 07:33:52;;;;;;;3.35;1.60;;;20.50;76.10;;;;;;6302922;22;20059;-67
2022/05/04 07:36:19;;;;;;;7.05;1.80;;;20.50;76.50;;;;;;6305202;22;20014;-67
2022/05/04 07:38:46;;;;;;;3.90;1.75;;;20.50;76.70;;;;;;6331280;22;20655;-68
2022/05/04 07:43:59;;;;;;;5.90;1.58;;;20.40;77.10;;;;;;6307163;22;20114;-68
2022/05/04 07:46:29;;;;;;;4.53;1.67;;;20.40;77.30;;;;;;6332926;22;20125;-67
2022/05/04 07:48:56;;;;;;;3.60;1.80;;;20.40;77.60;;;;;;6305723;22;20010;-68
2022/05/04 07:51:23;;;;;;;2.28;1.60;;;20.40;77.80;;;;;;6305385;22;20007;-67
2022/05/04 07:53:51;;;;;;;9.55;3.05;;;20.40;78.00;;;;;;6332168;22;20694;-68
2022/05/04 07:56:18;;;;;;;10.77;2.70;;;20.30;78.00;;;;;;6304330;22;20064;-67
2022/05/04 07:58:45;;;;;;;5.65;2.40;;;20.30;78.20;;;;;;6304804;22;20011;-68
2022/05/04 08:06:42;;;;;;;4.10;2.10;;;20.30;78.60;;;;;;6332330;22;20509;-67
2022/05/04 08:09:10;;;;;;;5.03;2.10;;;20.30;78.70;;;;;;6305953;22;20006;-67
2022/05/04 08:11:37;;;;;;;4.57;2.10;;;20.30;78.90;;;;;;6331971;22;20010;-67
2022/05/04 08:14:04;;;;;;;4.18;1.58;;;20.30;79.20;;;;;;6332797;22;19999;-67
2022/05/04 08:16:31;;;;;;;4.93;1.63;;;20.30;79.30;;;;;;6332176;22;20443;-67
2022/05/04 08:19:00;;;;;;;6.57;2.20;;;20.30;79.40;;;;;;6332496;22;19995;-67
2022/05/04 08:21:28;;;;;;;7.78;2.80;;;20.30;79.60;;;;;;6332544;22;20117;-67
2022/05/04 08:23:55;;;;;;;7.43;1.95;;;20.30;79.80;;;;;;6332283;22;20098;-68
2022/05/04 08:26:22;;;;;;;12.98;2.40;;;20.30;80.10;;;;;;6304584;22;20098;-68
2022/05/04 08:28:51;;;;;;;7.60;2.25;;;20.40;80.50;;;;;;6305592;22;20009;-68
2022/05/04 08:31:19;;;;;;;13.95;2.40;;;20.30;80.90;;;;;;6331725;22;20014;-66
2022/05/04 08:33:47;;;;;;;5.60;2.10;;;20.30;81.10;;;;;;6304389;22;20003;-69
2022/05/04 08:36:14;;;;;;;10.45;2.20;;;20.30;81.10;;;;;;6304503;22;20030;-67
2022/05/04 08:38:41;;;;;;;10.63;2.97;;;20.30;81.30;;;;;;6304694;22;20002;-68
2022/05/04 08:41:09;;;;;;;7.55;2.55;;;20.30;81.40;;;;;;6332102;22;20140;-68
2022/05/04 08:43:36;;;;;;;8.63;2.40;;;20.20;81.50;;;;;;6304409;22;20052;-68
2022/05/04 08:46:03;;;;;;;5.70;2.60;;;20.20;81.60;;;;;;6301314;22;20328;-68
2022/05/04 08:48:34;;;;;;;5.32;2.40;;;20.20;81.60;;;;;;6331723;22;20009;-67
2022/05/04 08:51:04;;;;;;;5.28;2.22;;;20.20;81.70;;;;;;6330867;22;20141;-67
2022/05/04 08:53:31;;;;;;;6.57;2.50;;;20.20;81.70;;;;;;6331205;22;20440;-67
2022/05/04 08:55:59;;;;;;;6.03;2.17;;;20.20;81.70;;;;;;6331678;22;20010;-66
2022/05/04 08:58:26;;;;;;;8.02;2.80;;;20.20;81.70;;;;;;6303510;22;20002;-67
2022/05/04 09:00:56;;;;;;;5.40;2.42;;;20.20;81.70;;;;;;6277259;22;20015;-66
2022/05/04 09:03:24;;;;;;;6.45;2.25;;;20.10;81.60;;;;;;6331714;22;20512;-66
2022/05/04 09:05:54;;;;;;;5.38;2.38;;;20.10;81.60;;;;;;6303630;22;20027;-65
2022/05/04 09:08:23;;;;;;;4.93;2.35;;;20.20;81.60;;;;;;6300232;22;20008;-70
2022/05/04 09:10:51;;;;;;;8.80;2.63;;;20.10;81.60;;;;;;6248113;22;20429;-67
2022/05/04 09:13:21;;;;;;;8.70;2.38;;;20.10;81.70;;;;;;6301447;22;20430;-66
2022/05/04 09:15:51;;;;;;;5.88;2.38;;;20.20;81.70;;;;;;6272813;22;20011;-66
2022/05/04 09:18:19;;;;;;;9.80;2.58;;;20.20;81.70;;;;;;6272699;22;20062;-66
2022/05/04 09:20:52;;;;;;;6.80;2.30;;;20.20;81.80;;;;;;6299953;22;20030;-67
2022/05/04 09:23:20;;;;;;;6.15;2.35;;;20.20;81.90;;;;;;6299651;22;20006;-66
2022/05/04 09:25:52;;;;;;;6.47;2.55;;;20.20;82.00;;;;;;6273986;22;19991;-67
2022/05/04 09:28:20;;;;;;;9.27;2.70;;;20.20;82.10;;;;;;6273551;22;19999;-65
2022/05/04 09:30:57;;;;;;;7.72;2.67;;;20.20;81.90;;;;;;6299332;22;20026;-65
2022/05/04 09:33:34;;;;;;;9.73;2.80;;;20.20;81.80;;;;;;6271940;22;20003;-65
2022/05/04 09:36:03;;;;;;;5.20;2.22;;;20.20;81.60;;;;;;6299631;22;20015;-65
2022/05/04 09:46:56;;;;;;;5.65;2.20;;;20.20;81.10;;;;;;6299441;22;20054;-66
2022/05/04 09:49:33;;;;;;;8.77;2.55;;;20.20;80.90;;;;;;6273863;22;20341;-66
2022/05/04 09:52:04;;;;;;;7.70;2.15;;;20.20;80.70;;;;;;6277902;22;20341;-67
2022/05/04 09:54:31;;;;;;;6.03;2.40;;;20.20;80.40;;;;;;6301436;22;20007;-66
2022/05/04 09:56:59;;;;;;;5.05;2.17;;;20.20;80.30;;;;;;6301950;22;20011;-65
2022/05/04 09:59:31;;;;;;;7.18;2.15;;;20.20;80.40;;;;;;6274908;22;20094;-65
2022/05/04 10:02:00;;;;;;;7.10;2.70;;;20.20;80.40;;;;;;6287540;22;20017;-65
2022/05/04 10:04:28;;;;;;;6.18;2.50;;;20.20;80.40;;;;;;6281964;22;20018;-64
2022/05/04 10:06:55;;;;;;;6.18;2.30;;;20.20;80.30;;;;;;6331463;22;20014;-65
2022/05/04 10:09:23;;;;;;;4.40;2.00;;;20.10;80.10;;;;;;6278643;22;20132;-65
2022/05/04 10:11:59;;;;;;;8.23;2.00;;;20.20;80.00;;;;;;6331566;22;20005;-63
2022/05/04 10:14:27;;;;;;;6.72;2.28;;;20.20;79.90;;;;;;6332100;22;20011;-64
2022/05/04 10:17:20;;;;;;;3.90;2.03;;;20.20;79.80;;;;;;6331784;22;20003;-64
2022/05/04 10:20:03;;;;;;;5.15;2.10;;;20.20;79.80;;;;;;6331106;22;20045;-64
2022/05/04 10:22:40;;;;;;;3.63;1.85;;;20.20;79.70;;;;;;6305808;22;20103;-66
2022/05/04 10:25:07;;;;;;;5.57;2.00;;;20.10;79.70;;;;;;6280185;22;20307;-65
2022/05/04 10:27:41;;;;;;;4.20;1.83;;;20.20;79.50;;;;;;6331361;22;20011;-65
2022/05/04 10:33:06;;;;;;;3.63;1.83;;;20.10;79.20;;;;;;6290227;22;20007;-67
2022/05/04 10:35:41;;;;;;;4.50;1.70;;;20.20;79.10;;;;;;6303846;22;20074;-65
2022/05/04 10:38:12;;;;;;;3.92;1.65;;;20.20;79.00;;;;;;6330966;22;20070;-65
2022/05/04 10:40:43;;;;;;;4.93;1.90;;;20.10;78.90;;;;;;6330190;22;20111;-65
2022/05/04 10:43:16;;;;;;;5.35;2.03;;;20.10;78.90;;;;;;6299424;22;20002;-66
2022/05/04 10:45:48;;;;;;;6.00;2.17;;;20.10;78.90;;;;;;6302131;22;20090;-65
2022/05/04 10:48:18;;;;;;;6.70;1.98;;;20.10;78.70;;;;;;6330503;22;20010;-66
2022/05/04 10:50:50;;;;;;;3.38;1.90;;;20.10;78.60;;;;;;6331178;22;20011;-66
2022/05/04 10:53:41;;;;;;;6.63;2.38;;;20.10;78.40;;;;;;6303177;22;20341;-66
2022/05/04 10:56:10;;;;;;;4.10;2.22;;;20.10;78.40;;;;;;6331217;22;20333;-65
2022/05/04 10:58:45;;;;;;;2.97;1.85;;;20.10;78.60;;;;;;6331269;22;20021;-67
2022/05/04 11:01:14;;;;;;;3.97;1.92;;;20.20;78.60;;;;;;6333979;22;20367;-66
2022/05/04 11:04:03;;;;;;;3.70;1.75;;;20.10;78.60;;;;;;6304847;22;19998;-67
2022/05/04 11:06:31;;;;;;;8.13;2.05;;;20.10;78.70;;;;;;6334930;22;20015;-66
2022/05/04 11:09:03;;;;;;;5.32;1.85;;;20.20;78.80;;;;;;6335253;22;20022;-67
2022/05/04 11:11:30;;;;;;;8.35;1.92;;;20.20;78.90;;;;;;6335140;22;20010;-66
2022/05/04 11:13:57;;;;;;;6.15;1.98;;;20.10;78.90;;;;;;6281751;22;20448;-66
2022/05/04 11:16:25;;;;;;;7.68;2.30;;;20.20;78.80;;;;;;6283068;22;19999;-66
2022/05/04 11:18:53;;;;;;;4.50;1.98;;;20.20;78.80;;;;;;6307976;22;20028;-66
2022/05/04 11:21:20;;;;;;;5.68;2.10;;;20.20;78.80;;;;;;6307230;22;20019;-66
2022/05/04 11:23:52;;;;;;;5.22;2.30;;;20.20;78.80;;;;;;6307380;22;19999;-67
2022/05/04 11:26:20;;;;;;;10.45;2.15;;;20.10;78.60;;;;;;6307287;22;20018;-66
2022/05/04 11:28:48;;;;;;;6.05;2.08;;;20.10;78.40;;;;;;6334530;22;20067;-67
2022/05/04 11:31:15;;;;;;;5.80;2.00;;;20.20;78.20;;;;;;6307965;22;20011;-67
2022/05/04 11:33:46;;;;;;;6.40;1.90;;;20.10;77.90;;;;;;6335849;22;19999;-67
2022/05/04 11:36:14;;;;;;;4.80;1.90;;;20.10;78.00;;;;;;6334100;22;20034;-67
2022/05/04 11:38:43;;;;;;;6.10;1.80;;;20.10;78.00;;;;;;6335544;22;20378;-67
2022/05/04 11:41:11;;;;;;;5.83;1.80;;;20.10;78.20;;;;;;6308502;22;20444;-68
2022/05/04 11:43:38;;;;;;;3.72;1.92;;;20.00;78.20;;;;;;6332032;22;20033;-67
2022/05/04 11:46:07;;;;;;;5.60;2.47;;;20.00;78.20;;;;;;6335829;22;20073;-67
2022/05/04 11:48:45;;;;;;;12.17;4.83;;;20.00;78.30;;;;;;6335915;22;19999;-67
2022/05/04 11:51:18;;;;;;;4.28;1.88;;;20.00;78.40;;;;;;6310370;22;20240;-67
2022/05/04 11:53:46;;;;;;;3.95;1.80;;;20.00;78.10;;;;;;6308347;22;20007;-67
2022/05/04 11:56:13;;;;;;;6.78;1.90;;;19.90;78.00;;;;;;6334829;22;19999;-67
2022/05/04 11:58:41;;;;;;;3.75;1.77;;;19.90;77.90;;;;;;6281733;22;20003;-67
2022/05/04 12:01:09;;;;;;;3.10;1.52;;;19.90;77.90;;;;;;6333573;22;20017;-67
2022/05/04 12:03:38;;;;;;;5.82;1.83;;;19.90;77.90;;;;;;6335802;22;20451;-67
2022/05/04 12:06:10;;;;;;;4.25;1.80;;;19.90;77.80;;;;;;6336212;22;20110;-67
2022/05/04 12:08:38;;;;;;;4.53;1.80;;;19.90;77.60;;;;;;6307724;22;20003;-67
2022/05/04 12:11:07;;;;;;;4.60;1.80;;;19.90;77.50;;;;;;6307409;22;20029;-67
2022/05/04 12:13:39;;;;;;;2.50;1.60;;;19.90;77.50;;;;;;6335505;22;20010;-67
2022/05/04 12:16:07;;;;;;;5.18;1.88;;;19.90;77.50;;;;;;6331980;22;20006;-67
2022/05/04 12:18:35;;;;;;;4.15;1.85;;;19.90;77.50;;;;;;6325999;22;20086;-67
2022/05/04 12:21:10;;;;;;;1.95;1.30;;;19.90;77.30;;;;;;6282507;22;20068;-67
2022/05/04 12:23:39;;;;;;;5.00;1.48;;;19.90;77.20;;;;;;6307751;22;20034;-67
2022/05/04 12:26:07;;;;;;;3.10;1.50;;;19.90;77.20;;;;;;6333133;22;20064;-67
2022/05/04 12:28:35;;;;;;;3.72;1.48;;;19.90;77.10;;;;;;6334682;22;20002;-67
2022/05/04 12:33:50;;;;;;;1.83;1.30;;;19.90;76.90;;;;;;6310315;22;20115;-67
2022/05/04 12:36:19;;;;;;;2.85;1.15;;;19.90;76.60;;;;;;6334260;22;20477;-67
2022/05/04 12:38:50;;;;;;;2.78;1.55;;;20.00;76.30;;;;;;6305722;22;20037;-66
2022/05/04 12:41:22;;;;;;;3.75;1.75;;;20.00;76.30;;;;;;6283001;22;20093;-66
2022/05/04 12:43:50;;;;;;;6.35;1.70;;;20.00;76.30;;;;;;6308035;22;20010;-67
2022/05/04 12:46:18;;;;;;;2.85;1.50;;;20.00;76.30;;;;;;6307616;22;20003;-67
2022/05/04 12:48:46;;;;;;;3.70;1.50;;;20.00;75.90;;;;;;6335025;22;20065;-67
2022/05/04 12:51:16;;;;;;;3.47;1.25;;;20.00;75.80;;;;;;6336040;22;20066;-67
2022/05/04 12:53:46;;;;;;;4.35;1.40;;;20.10;75.70;;;;;;6322438;22;20007;-67
2022/05/04 12:59:02;;;;;;;2.70;1.33;;;20.00;75.80;;;;;;6335048;22;20034;-67
2022/05/04 13:01:30;;;;;;;2.47;1.30;;;20.10;75.80;;;;;;6334743;22;20448;-66
2022/05/04 13:04:01;;;;;;;2.45;1.33;;;20.10;75.70;;;;;;6301701;22;19999;-66
2022/05/04 13:06:28;;;;;;;3.55;1.33;;;20.10;75.80;;;;;;6333997;22;20010;-66
2022/05/04 13:08:56;;;;;;;1.98;1.27;;;20.10;75.90;;;;;;6334070;22;20002;-66
2022/05/04 13:11:26;;;;;;;3.90;1.50;;;20.10;76.00;;;;;;6281837;22;20303;-67
2022/05/04 13:13:54;;;;;;;3.85;1.40;;;20.00;76.10;;;;;;6335405;22;20013;-67
2022/05/04 13:16:21;;;;;;;4.68;1.50;;;20.00;76.10;;;;;;6308403;22;20363;-66
2022/05/04 13:18:48;;;;;;;3.20;1.30;;;20.00;76.10;;;;;;6308099;22;20003;-66
2022/05/04 13:21:15;;;;;;;3.65;1.30;;;20.00;76.20;;;;;;6282439;22;20468;-67
2022/05/04 13:23:44;;;;;;;1.88;1.52;;;20.00;76.20;;;;;;6308240;22;20002;-66
2022/05/04 13:26:14;;;;;;;2.85;1.30;;;20.00;76.30;;;;;;6310587;22;20003;-67
2022/05/04 13:28:41;;;;;;;3.05;1.30;;;20.00;76.50;;;;;;6336671;22;20002;-67
2022/05/04 13:31:08;;;;;;;4.50;1.60;;;20.00;76.70;;;;;;6337018;22;20082;-67
2022/05/04 13:33:35;;;;;;;5.13;1.60;;;20.00;77.00;;;;;;6336287;22;20472;-67